createdAt,value
2022-07-30T00:01:15.231Z,100.00
2022-07-30T00:03:41.830Z,100.00
2022-07-30T00:06:08.409Z,100.00
2022-07-30T00:08:34.949Z,100.00
2022-07-30T00:11:01.415Z,100.00
2022-07-30T00:13:27.878Z,100.00
2022-07-30T00:15:54.401Z,100.00
2022-07-30T00:18:21.223Z,100.00
2022-07-30T00:20:49.094Z,100.00
2022-07-30T00:23:15.684Z,100.00
2022-07-30T00:25:42.212Z,100.00
2022-07-30T00:28:08.666Z,100.00
2022-07-30T00:30:35.343Z,100.00
2022-07-30T00:33:01.991Z,100.00
2022-07-30T00:35:28.573Z,100.00
2022-07-30T00:37:55.050Z,100.00
2022-07-30T00:40:21.687Z,100.00
2022-07-30T00:42:48.333Z,100.00
2022-07-30T00:45:16.367Z,100.00
2022-07-30T00:47:43.366Z,100.00
2022-07-30T00:50:11.900Z,100.00
2022-07-30T00:52:39.311Z,100.00
2022-07-30T00:55:07.930Z,100.00
2022-07-30T00:57:34.638Z,100.00
2022-07-30T01:00:01.459Z,100.00
2022-07-30T01:02:28.027Z,100.00
2022-07-30T01:04:54.598Z,100.00
2022-07-30T01:07:21.049Z,100.00
2022-07-30T01:09:50.432Z,100.00
2022-07-30T01:12:20.886Z,100.00
2022-07-30T01:14:47.829Z,100.00
2022-07-30T01:17:14.287Z,100.00
2022-07-30T01:19:48.977Z,100.00
2022-07-30T01:22:43.989Z,100.00
2022-07-30T01:25:32.114Z,100.00
2022-07-30T01:28:03.869Z,100.00
2022-07-30T01:30:35.668Z,100.00
2022-07-30T01:33:04.389Z,100.00
2022-07-30T01:35:33.219Z,100.00
2022-07-30T01:38:01.873Z,100.00
2022-07-30T01:40:29.363Z,100.00
2022-07-30T01:42:58.426Z,100.00
2022-07-30T01:45:26.574Z,100.00
2022-07-30T01:47:55.828Z,100.00
2022-07-30T01:50:23.137Z,100.00
2022-07-30T01:52:52.718Z,100.00
2022-07-30T01:55:26.419Z,100.00
2022-07-30T01:57:55.762Z,100.00
2022-07-30T02:00:24.492Z,100.00
2022-07-30T02:02:51.054Z,100.00
2022-07-30T02:05:17.546Z,100.00
2022-07-30T02:08:17.150Z,100.00
2022-07-30T02:10:51.364Z,100.00
2022-07-30T02:13:22.710Z,100.00
2022-07-30T02:15:55.082Z,100.00
2022-07-30T02:18:30.985Z,100.00
2022-07-30T02:21:07.395Z,100.00
2022-07-30T02:23:41.841Z,100.00
2022-07-30T02:26:10.508Z,100.00
2022-07-30T02:28:39.454Z,100.00
2022-07-30T02:31:17.310Z,100.00
2022-07-30T02:33:48.820Z,100.00
2022-07-30T02:36:18.592Z,100.00
2022-07-30T02:38:47.348Z,100.00
2022-07-30T02:41:15.353Z,100.00
2022-07-30T02:43:42.601Z,100.00
2022-07-30T02:46:11.569Z,100.00
2022-07-30T02:48:40.086Z,100.00
2022-07-30T02:51:08.384Z,100.00
2022-07-30T02:53:36.586Z,100.00
2022-07-30T02:56:05.147Z,100.00
2022-07-30T02:58:32.776Z,100.00
2022-07-30T03:01:01.033Z,100.00
2022-07-30T03:03:31.123Z,100.00
2022-07-30T03:05:58.324Z,100.00
2022-07-30T03:08:26.589Z,100.00
2022-07-30T03:10:55.770Z,100.00
2022-07-30T03:13:23.603Z,100.00
2022-07-30T03:15:51.846Z,100.00
2022-07-30T03:18:20.303Z,100.00
2022-07-30T03:20:51.373Z,100.00
2022-07-30T03:23:19.979Z,100.00
2022-07-30T03:25:56.728Z,100.00
2022-07-30T03:28:25.183Z,100.00
2022-07-30T03:30:53.483Z,100.00
2022-07-30T03:33:21.489Z,100.00
2022-07-30T03:35:49.725Z,100.00
2022-07-30T03:38:17.916Z,100.00
2022-07-30T03:40:45.804Z,100.00
2022-07-30T03:43:32.462Z,100.00
2022-07-30T03:46:01.095Z,100.00
2022-07-30T03:48:28.152Z,100.00
2022-07-30T03:50:55.133Z,100.00
2022-07-30T03:53:24.950Z,100.00
2022-07-30T03:55:52.961Z,100.00
2022-07-30T03:58:19.676Z,100.00
2022-07-30T04:00:51.077Z,100.00
2022-07-30T04:03:26.081Z,100.00
2022-07-30T04:05:53.251Z,100.00
2022-07-30T04:08:19.956Z,100.00
2022-07-30T04:10:48.411Z,100.00
2022-07-30T04:13:15.068Z,100.00
2022-07-30T04:16:39.974Z,100.00
2022-07-30T04:18:56.285Z,100.00
2022-07-30T04:21:24.964Z,100.00
2022-07-30T04:24:04.661Z,100.00
2022-07-30T04:26:33.887Z,100.00
2022-07-30T04:29:02.525Z,100.00
2022-07-30T04:31:29.314Z,100.00
2022-07-30T04:33:55.930Z,100.00
2022-07-30T04:36:30.378Z,100.00
2022-07-30T04:38:57.580Z,100.00
2022-07-30T04:41:24.251Z,100.00
2022-07-30T04:43:51.610Z,100.00
2022-07-30T04:46:18.706Z,100.00
2022-07-30T04:48:48.054Z,100.00
2022-07-30T04:51:34.942Z,100.00
2022-07-30T04:54:03.366Z,100.00
2022-07-30T04:56:31.394Z,100.00
2022-07-30T04:58:58.303Z,100.00
2022-07-30T05:01:35.946Z,100.00
2022-07-30T05:04:09.659Z,100.00
2022-07-30T05:06:37.479Z,100.00
2022-07-30T05:09:04.327Z,100.00
2022-07-30T05:11:30.849Z,100.00
2022-07-30T05:13:57.358Z,100.00
2022-07-30T05:16:24.076Z,100.00
2022-07-30T05:18:50.935Z,100.00
2022-07-30T05:21:17.512Z,100.00
2022-07-30T05:23:50.096Z,100.00
2022-07-30T05:26:21.241Z,100.00
2022-07-30T05:28:53.593Z,100.00
2022-07-30T05:31:22.098Z,100.00
2022-07-30T05:33:48.930Z,100.00
2022-07-30T05:36:15.487Z,100.00
2022-07-30T05:38:42.018Z,100.00
2022-07-30T05:41:19.159Z,100.00
2022-07-30T05:43:55.926Z,100.00
2022-07-30T05:46:23.911Z,100.00
2022-07-30T05:48:50.595Z,100.00
2022-07-30T05:51:18.781Z,100.00
2022-07-30T05:53:45.229Z,100.00
2022-07-30T05:56:11.819Z,100.00
2022-07-30T05:58:38.662Z,100.00
2022-07-30T06:01:05.156Z,100.00
2022-07-30T06:03:31.847Z,100.00
2022-07-30T06:05:58.331Z,100.00
2022-07-30T06:08:24.770Z,100.00
2022-07-30T06:10:51.359Z,100.00
2022-07-30T06:13:17.813Z,100.00
2022-07-30T06:15:44.326Z,100.00
2022-07-30T06:18:10.817Z,100.00
2022-07-30T06:20:37.297Z,100.00
2022-07-30T06:23:03.759Z,100.00
2022-07-30T06:25:30.639Z,100.00
2022-07-30T06:27:57.113Z,100.00
2022-07-30T06:30:31.491Z,100.00
2022-07-30T06:32:58.767Z,100.00
2022-07-30T06:35:25.763Z,100.00
2022-07-30T06:38:00.653Z,100.00
2022-07-30T06:40:34.680Z,100.00
2022-07-30T06:43:01.296Z,100.00
2022-07-30T06:45:27.890Z,100.00
2022-07-30T06:47:58.929Z,100.00
2022-07-30T06:50:26.110Z,100.00
2022-07-30T06:52:52.649Z,100.00
2022-07-30T06:55:19.508Z,100.00
2022-07-30T06:57:46.127Z,100.00
2022-07-30T07:00:16.294Z,100.00
2022-07-30T07:02:43.365Z,100.00
2022-07-30T07:05:10.917Z,100.00
2022-07-30T07:07:42.973Z,100.00
2022-07-30T07:10:13.064Z,100.00
2022-07-30T07:12:39.584Z,100.00
2022-07-30T07:15:06.670Z,100.00
2022-07-30T07:17:33.255Z,100.00
2022-07-30T07:20:02.591Z,100.00
2022-07-30T07:22:29.802Z,100.00
2022-07-30T07:24:59.041Z,100.00
2022-07-30T07:27:25.542Z,100.00
2022-07-30T07:30:01.355Z,100.00
2022-07-30T07:32:32.643Z,100.00
2022-07-30T07:34:59.155Z,100.00
2022-07-30T07:37:25.639Z,100.00
2022-07-30T07:39:52.105Z,100.00
2022-07-30T07:42:21.358Z,100.00
2022-07-30T07:44:47.835Z,100.00
2022-07-30T07:47:14.668Z,100.00
2022-07-30T07:49:41.845Z,100.00
2022-07-30T07:52:08.444Z,100.00
2022-07-30T07:54:35.109Z,100.00
2022-07-30T07:57:03.131Z,100.00
2022-07-30T07:59:39.609Z,100.00
2022-07-30T08:02:08.561Z,100.00
2022-07-30T08:04:36.051Z,100.00
2022-07-30T08:07:03.518Z,100.00
2022-07-30T08:09:43.834Z,100.00
2022-07-30T08:12:11.853Z,100.00
2022-07-30T08:14:38.425Z,100.00
2022-07-30T08:17:05.346Z,100.00
2022-07-30T08:19:32.272Z,100.00
2022-07-30T08:21:59.749Z,100.00
2022-07-30T08:24:26.931Z,100.00
2022-07-30T08:26:53.836Z,100.00
2022-07-30T08:29:20.319Z,100.00
2022-07-30T08:31:47.146Z,100.00
2022-07-30T08:34:13.875Z,100.00
2022-07-30T08:36:46.462Z,100.00
2022-07-30T08:39:12.942Z,100.00
2022-07-30T08:41:41.745Z,100.00
2022-07-30T08:44:12.822Z,100.00
2022-07-30T08:46:46.221Z,100.00
2022-07-30T08:49:16.593Z,100.00
2022-07-30T08:51:43.481Z,100.00
2022-07-30T08:54:10.082Z,100.00
2022-07-30T08:56:37.203Z,100.00
2022-07-30T08:59:04.521Z,100.00
2022-07-30T09:01:31.179Z,100.00
2022-07-30T09:03:57.928Z,100.00
2022-07-30T09:06:24.565Z,100.00
2022-07-30T09:08:51.047Z,100.00
2022-07-30T09:11:17.576Z,100.00
2022-07-30T09:13:44.756Z,100.00
2022-07-30T09:16:25.137Z,100.00
2022-07-30T09:18:53.779Z,100.00
2022-07-30T09:21:26.405Z,100.00
2022-07-30T09:23:59.809Z,100.00
2022-07-30T09:26:27.103Z,100.00
2022-07-30T09:28:54.137Z,100.00
2022-07-30T09:31:23.812Z,100.00
2022-07-30T09:33:50.423Z,100.00
2022-07-30T09:36:18.284Z,100.00
2022-07-30T09:38:51.910Z,100.00
2022-07-30T09:41:40.709Z,100.00
2022-07-30T09:44:07.729Z,100.00
2022-07-30T09:46:47.548Z,100.00
2022-07-30T09:49:22.807Z,100.00
2022-07-30T09:51:56.101Z,100.00
2022-07-30T09:54:51.210Z,100.00
2022-07-30T09:57:26.047Z,100.00
2022-07-30T10:00:00.138Z,100.00
2022-07-30T10:02:31.928Z,100.00
2022-07-30T10:05:14.217Z,100.00
2022-07-30T10:08:16.374Z,100.00
2022-07-30T10:10:47.075Z,100.00
2022-07-30T10:13:16.910Z,100.00
2022-07-30T10:15:46.092Z,100.00
2022-07-30T10:18:15.876Z,100.00
2022-07-30T10:20:44.669Z,100.00
2022-07-30T10:23:15.809Z,100.00
2022-07-30T10:25:48.836Z,100.00
2022-07-30T10:28:17.486Z,100.00
2022-07-30T10:30:45.158Z,100.00
2022-07-30T10:33:35.171Z,100.00
2022-07-30T10:35:59.067Z,100.00
2022-07-30T10:38:30.297Z,100.00
2022-07-30T10:41:47.315Z,99.75
2022-07-30T10:44:52.511Z,98.37
2022-07-30T10:47:20.164Z,98.64
2022-07-30T10:50:12.020Z,95.29
2022-07-30T10:52:45.546Z,97.76
2022-07-30T10:55:15.841Z,97.44
2022-07-30T10:58:11.436Z,98.15
2022-07-30T11:00:53.605Z,100.00
2022-07-30T11:03:41.236Z,100.00
2022-07-30T11:06:14.866Z,100.00
2022-07-30T11:08:48.130Z,99.87
2022-07-30T11:12:13.371Z,98.64
2022-07-30T11:14:46.974Z,99.41
2022-07-30T11:17:18.703Z,98.98
2022-07-30T11:20:11.764Z,95.29
2022-07-30T11:22:44.849Z,94.95
2022-07-30T11:25:51.000Z,94.10
2022-07-30T11:28:36.465Z,93.10
2022-07-30T11:31:10.201Z,93.87
2022-07-30T11:33:37.624Z,94.82
2022-07-30T11:36:08.057Z,92.85
2022-07-30T11:39:05.131Z,93.39
2022-07-30T11:41:33.548Z,93.73
2022-07-30T11:44:25.540Z,93.80
2022-07-30T11:46:52.413Z,93.59
2022-07-30T11:49:19.756Z,92.22
2022-07-30T11:51:48.868Z,88.21
2022-07-30T11:54:15.771Z,87.61
2022-07-30T11:57:04.057Z,88.16
2022-07-30T11:59:30.998Z,88.04
2022-07-30T12:02:00.154Z,90.67
2022-07-30T12:04:27.124Z,91.17
2022-07-30T12:06:54.050Z,91.96
2022-07-30T12:09:28.694Z,88.07
2022-07-30T12:11:56.080Z,89.20
2022-07-30T12:14:22.688Z,89.03
2022-07-30T12:16:51.529Z,90.17
2022-07-30T12:19:18.172Z,87.57
2022-07-30T12:21:46.519Z,87.90
2022-07-30T12:24:16.100Z,90.23
2022-07-30T12:26:42.702Z,91.43
2022-07-30T12:29:13.221Z,89.46
2022-07-30T12:31:40.796Z,89.43
2022-07-30T12:34:24.943Z,78.33
2022-07-30T12:36:51.603Z,80.39
2022-07-30T12:39:24.028Z,78.68
2022-07-30T12:41:52.669Z,78.84
2022-07-30T12:44:42.185Z,82.94
2022-07-30T12:47:20.565Z,77.03
2022-07-30T12:49:49.770Z,77.64
2022-07-30T12:52:35.571Z,72.63
2022-07-30T12:55:02.487Z,75.35
2022-07-30T12:58:08.858Z,75.87
2022-07-30T13:00:44.615Z,70.36
2022-07-30T13:03:28.211Z,65.36
2022-07-30T13:05:56.211Z,71.82
2022-07-30T13:08:45.623Z,70.19
2022-07-30T13:11:12.321Z,63.49
2022-07-30T13:13:39.127Z,62.45
2022-07-30T13:16:06.670Z,64.58
2022-07-30T13:18:35.793Z,66.92
2022-07-30T13:21:04.261Z,63.34
2022-07-30T13:23:30.997Z,58.37
2022-07-30T13:25:57.869Z,58.00
2022-07-30T13:28:24.953Z,61.39
2022-07-30T13:30:51.956Z,58.46
2022-07-30T13:33:18.876Z,57.45
2022-07-30T13:35:45.375Z,59.04
2022-07-30T13:38:13.497Z,61.54
2022-07-30T13:40:40.453Z,60.35
2022-07-30T13:43:07.412Z,59.72
2022-07-30T13:45:34.962Z,60.21
2022-07-30T13:48:01.815Z,58.21
2022-07-30T13:50:28.599Z,53.42
2022-07-30T13:53:01.763Z,56.08
2022-07-30T13:55:29.085Z,55.90
2022-07-30T13:57:56.372Z,53.56
2022-07-30T14:00:23.415Z,54.19
2022-07-30T14:02:50.674Z,55.04
2022-07-30T14:05:17.439Z,56.28
2022-07-30T14:07:43.923Z,53.61
2022-07-30T14:10:10.509Z,53.70
2022-07-30T14:12:37.918Z,49.43
2022-07-30T14:15:04.949Z,49.16
2022-07-30T14:17:31.663Z,48.66
2022-07-30T14:19:58.258Z,48.66
2022-07-30T14:22:24.772Z,49.59
2022-07-30T14:24:51.262Z,47.80
2022-07-30T14:27:20.411Z,47.61
2022-07-30T14:29:47.572Z,43.08
2022-07-30T14:32:14.132Z,45.50
2022-07-30T14:34:41.221Z,43.72
2022-07-30T14:37:15.671Z,43.79
2022-07-30T14:39:42.173Z,42.19
2022-07-30T14:42:08.682Z,42.93
2022-07-30T14:44:35.212Z,42.68
2022-07-30T14:47:01.747Z,43.56
2022-07-30T14:49:28.261Z,40.99
2022-07-30T14:51:54.787Z,41.88
2022-07-30T14:54:21.649Z,41.79
2022-07-30T14:56:48.901Z,41.14
2022-07-30T14:59:15.885Z,42.11
2022-07-30T15:01:43.849Z,41.67
2022-07-30T15:04:11.475Z,40.17
2022-07-30T15:06:38.076Z,40.25
2022-07-30T15:09:04.585Z,40.89
2022-07-30T15:11:40.292Z,41.50
2022-07-30T15:14:17.700Z,41.16
2022-07-30T15:16:47.925Z,40.73
2022-07-30T15:19:14.448Z,39.21
2022-07-30T15:21:40.961Z,37.95
2022-07-30T15:24:07.580Z,37.24
2022-07-30T15:26:34.087Z,36.24
2022-07-30T15:29:00.583Z,36.83
2022-07-30T15:31:27.079Z,35.08
2022-07-30T15:33:53.563Z,34.06
2022-07-30T15:36:20.257Z,34.65
2022-07-30T15:38:47.004Z,36.11
2022-07-30T15:41:14.039Z,37.39
2022-07-30T15:43:40.575Z,38.35
2022-07-30T15:46:07.012Z,38.37
2022-07-30T15:48:33.673Z,38.68
2022-07-30T15:51:02.728Z,37.04
2022-07-30T15:53:31.023Z,35.93
2022-07-30T15:55:58.467Z,37.29
2022-07-30T15:58:25.019Z,36.58
2022-07-30T16:00:51.634Z,36.99
2022-07-30T16:03:18.153Z,36.00
2022-07-30T16:05:52.132Z,36.15
2022-07-30T16:08:20.408Z,36.27
2022-07-30T16:10:47.089Z,37.02
2022-07-30T16:13:13.611Z,37.92
2022-07-30T16:15:40.244Z,37.23
2022-07-30T16:18:06.763Z,39.31
2022-07-30T16:20:34.193Z,38.46
2022-07-30T16:23:00.751Z,39.15
2022-07-30T16:25:27.397Z,39.41
2022-07-30T16:27:53.938Z,38.67
2022-07-30T16:30:20.521Z,38.52
2022-07-30T16:32:47.158Z,38.84
2022-07-30T16:35:13.708Z,38.85
2022-07-30T16:37:40.316Z,38.67
2022-07-30T16:40:07.199Z,38.97
2022-07-30T16:42:33.665Z,38.74
2022-07-30T16:45:00.250Z,39.03
2022-07-30T16:47:26.726Z,40.29
2022-07-30T16:49:53.252Z,39.24
2022-07-30T16:52:19.797Z,40.43
2022-07-30T16:54:46.877Z,41.28
2022-07-30T16:57:14.162Z,42.12
2022-07-30T16:59:43.607Z,41.50
2022-07-30T17:02:10.503Z,41.90
2022-07-30T17:04:37.041Z,40.47
2022-07-30T17:07:03.569Z,40.36
2022-07-30T17:09:36.467Z,40.35
2022-07-30T17:12:05.313Z,40.21
2022-07-30T17:14:32.733Z,40.20
2022-07-30T17:16:59.733Z,39.85
2022-07-30T17:19:26.617Z,40.43
2022-07-30T17:21:53.098Z,40.74
2022-07-30T17:24:19.621Z,40.35
2022-07-30T17:26:46.737Z,40.89
2022-07-30T17:29:15.279Z,40.21
2022-07-30T17:31:44.208Z,39.98
2022-07-30T17:34:13.851Z,41.05
2022-07-30T17:36:45.881Z,41.53
2022-07-30T17:40:22.989Z,43.03
2022-07-30T17:42:09.941Z,44.00
2022-07-30T17:44:37.538Z,44.47
2022-07-30T17:47:04.041Z,44.73
2022-07-30T17:49:30.803Z,45.41
2022-07-30T17:51:57.345Z,45.77
2022-07-30T17:54:23.932Z,45.78
2022-07-30T17:56:50.466Z,46.34
2022-07-30T17:59:16.998Z,48.17
2022-07-30T18:01:43.471Z,48.33
2022-07-30T18:04:09.958Z,47.93
2022-07-30T18:06:36.468Z,47.59
2022-07-30T18:09:04.691Z,47.91
2022-07-30T18:11:31.244Z,48.16
2022-07-30T18:13:57.840Z,48.51
2022-07-30T18:16:25.091Z,49.57
2022-07-30T18:18:51.733Z,49.66
2022-07-30T18:21:18.208Z,50.58
2022-07-30T18:23:44.668Z,51.20
2022-07-30T18:26:11.805Z,52.02
2022-07-30T18:28:38.296Z,52.64
2022-07-30T18:31:04.812Z,53.61
2022-07-30T18:33:31.305Z,53.31
2022-07-30T18:35:57.776Z,54.44
2022-07-30T18:38:24.243Z,55.01
2022-07-30T18:40:59.593Z,56.05
2022-07-30T18:43:27.682Z,55.33
2022-07-30T18:45:55.066Z,55.19
2022-07-30T18:48:21.907Z,54.63
2022-07-30T18:50:49.304Z,53.93
2022-07-30T18:53:16.094Z,54.62
2022-07-30T18:55:43.161Z,55.54
2022-07-30T18:58:09.782Z,57.36
2022-07-30T19:00:37.344Z,57.84
2022-07-30T19:03:04.233Z,58.54
2022-07-30T19:05:30.949Z,58.95
2022-07-30T19:07:58.975Z,59.24
2022-07-30T19:10:27.134Z,59.93
2022-07-30T19:12:54.772Z,58.85
2022-07-30T19:15:21.484Z,58.78
2022-07-30T19:17:49.297Z,58.66
2022-07-30T19:20:15.857Z,59.50
2022-07-30T19:22:42.477Z,58.79
2022-07-30T19:25:10.121Z,59.29
2022-07-30T19:27:36.828Z,60.39
2022-07-30T19:30:04.557Z,61.02
2022-07-30T19:32:31.173Z,61.21
2022-07-30T19:34:57.737Z,61.55
2022-07-30T19:37:24.235Z,61.86
2022-07-30T19:40:05.558Z,61.59
2022-07-30T19:42:33.914Z,60.99
2022-07-30T19:45:01.277Z,61.32
2022-07-30T19:47:38.364Z,61.05
2022-07-30T19:50:06.664Z,61.00
2022-07-30T19:52:33.401Z,61.91
2022-07-30T19:55:01.441Z,62.88
2022-07-30T19:57:53.014Z,63.53
2022-07-30T20:00:24.771Z,62.75
2022-07-30T20:02:52.025Z,63.11
2022-07-30T20:05:18.556Z,62.51
2022-07-30T20:07:47.049Z,64.31
2022-07-30T20:10:15.988Z,65.02
2022-07-30T20:12:49.452Z,63.91
2022-07-30T20:15:16.921Z,63.58
2022-07-30T20:17:43.477Z,64.06
2022-07-30T20:20:13.626Z,66.12
2022-07-30T20:22:40.228Z,65.00
2022-07-30T20:25:08.299Z,66.92
2022-07-30T20:27:38.700Z,65.49
2022-07-30T20:30:07.953Z,64.79
2022-07-30T20:32:40.590Z,65.64
2022-07-30T20:35:12.941Z,65.71
2022-07-30T20:37:40.313Z,65.60
2022-07-30T20:40:22.362Z,65.97
2022-07-30T20:42:49.619Z,64.52
2022-07-30T20:45:16.101Z,63.06
2022-07-30T20:47:43.620Z,62.72
2022-07-30T20:50:14.179Z,63.13
2022-07-30T20:52:46.461Z,63.30
2022-07-30T20:55:16.566Z,64.02
2022-07-30T20:57:55.941Z,64.64
2022-07-30T21:00:26.310Z,64.71
2022-07-30T21:02:52.819Z,64.31
2022-07-30T21:05:19.850Z,64.30
2022-07-30T21:07:46.766Z,64.89
2022-07-30T21:10:13.384Z,65.56
2022-07-30T21:12:41.387Z,65.98
2022-07-30T21:15:23.539Z,65.29
2022-07-30T21:17:51.174Z,64.80
2022-07-30T21:20:27.354Z,65.07
2022-07-30T21:22:55.913Z,65.57
2022-07-30T21:25:23.578Z,65.46
2022-07-30T21:28:02.993Z,65.36
2022-07-30T21:30:30.299Z,67.22
2022-07-30T21:32:56.756Z,66.81
2022-07-30T21:35:23.487Z,66.78
2022-07-30T21:37:49.988Z,67.22
2022-07-30T21:40:19.027Z,68.31
2022-07-30T21:42:51.473Z,68.92
2022-07-30T21:45:19.624Z,70.29
2022-07-30T21:50:33.517Z,70.47
2022-07-30T21:53:00.996Z,70.78
2022-07-30T21:55:27.665Z,71.38
2022-07-30T21:58:00.064Z,72.62
2022-07-30T22:00:50.958Z,74.19
2022-07-30T22:04:03.554Z,75.47
2022-07-30T22:06:04.875Z,76.81
2022-07-30T22:08:39.057Z,77.04
2022-07-30T22:11:08.982Z,76.91
2022-07-30T22:13:35.944Z,76.89
2022-07-30T22:16:18.225Z,77.12
2022-07-30T22:18:45.482Z,75.85
2022-07-30T22:21:11.983Z,75.60
2022-07-30T22:23:41.369Z,74.85
2022-07-30T22:26:23.851Z,76.25
2022-07-30T22:28:53.203Z,78.15
2022-07-30T22:31:20.967Z,79.17
2022-07-30T22:33:48.826Z,78.72
2022-07-30T22:36:17.660Z,78.67
2022-07-30T22:38:58.469Z,79.78
2022-07-30T22:41:25.997Z,84.73
2022-07-30T22:43:55.880Z,91.73
2022-07-30T22:46:30.745Z,93.65
2022-07-30T22:48:57.971Z,93.20
2022-07-30T22:51:26.084Z,92.56
2022-07-30T22:54:13.248Z,94.16
2022-07-30T22:56:40.525Z,94.46
2022-07-30T22:59:07.003Z,96.10
2022-07-30T23:01:33.662Z,94.96
2022-07-30T23:04:01.479Z,94.45
2022-07-30T23:06:28.337Z,93.80
2022-07-30T23:08:56.957Z,93.09
2022-07-30T23:11:23.495Z,92.73
2022-07-30T23:12:31.148Z,70.07
2022-07-30T23:13:53.653Z,91.96
2022-07-30T23:16:20.292Z,91.01
2022-07-30T23:18:46.735Z,90.98
2022-07-30T23:21:13.379Z,90.77
2022-07-30T23:23:40.542Z,90.62
2022-07-30T23:26:08.466Z,90.95
2022-07-30T23:28:36.822Z,90.60
2022-07-30T23:31:03.982Z,91.01
2022-07-30T23:33:31.361Z,91.16
2022-07-30T23:36:00.299Z,90.07
2022-07-30T23:38:27.248Z,90.00
2022-07-30T23:40:54.237Z,90.09
2022-07-30T23:43:20.831Z,89.93
2022-07-30T23:45:47.301Z,90.13
2022-07-30T23:48:14.968Z,90.32
2022-07-30T23:50:41.494Z,90.85
2022-07-30T23:53:07.935Z,91.08
2022-07-30T23:55:35.956Z,91.45
2022-07-30T23:58:02.428Z,91.21
